sensor_id;sensor_type;location;lat;lon;timestamp;temperature;humidity
60495;DHT22;46342;49.046;11.920;2023-08-12T00:01:04;21.30;53.40
60495;DHT22;46342;49.046;11.920;2023-08-12T00:03:30;21.30;53.50
60495;DHT22;46342;49.046;11.920;2023-08-12T00:05:58;21.20;53.40
60495;DHT22;46342;49.046;11.920;2023-08-12T00:08:25;21.20;53.60
60495;DHT22;46342;49.046;11.920;2023-08-12T00:10:51;21.20;54.20
60495;DHT22;46342;49.046;11.920;2023-08-12T00:13:17;21.10;53.50
60495;DHT22;46342;49.046;11.920;2023-08-12T00:15:43;21.00;53.50
60495;DHT22;46342;49.046;11.920;2023-08-12T00:18:09;21.00;53.60
60495;DHT22;46342;49.046;11.920;2023-08-12T00:20:35;21.00;53.70
60495;DHT22;46342;49.046;11.920;2023-08-12T00:23:03;21.00;53.80
60495;DHT22;46342;49.046;11.920;2023-08-12T00:25:29;21.00;53.90
60495;DHT22;46342;49.046;11.920;2023-08-12T00:27:55;20.90;53.80
60495;DHT22;46342;49.046;11.920;2023-08-12T00:30:20;20.90;53.90
60495;DHT22;46342;49.046;11.920;2023-08-12T00:32:46;20.90;54.10
60495;DHT22;46342;49.046;11.920;2023-08-12T00:35:12;20.90;54.20
60495;DHT22;46342;49.046;11.920;2023-08-12T00:37:37;20.80;54.10
60495;DHT22;46342;49.046;11.920;2023-08-12T00:40:03;20.80;54.20
60495;DHT22;46342;49.046;11.920;2023-08-12T00:42:29;20.80;54.30
60495;DHT22;46342;49.046;11.920;2023-08-12T00:44:55;20.70;54.30
60495;DHT22;46342;49.046;11.920;2023-08-12T00:47:21;20.70;54.40
60495;DHT22;46342;49.046;11.920;2023-08-12T00:49:47;20.60;54.50
60495;DHT22;46342;49.046;11.920;2023-08-12T00:52:14;20.70;54.70
60495;DHT22;46342;49.046;11.920;2023-08-12T00:54:40;20.60;54.80
60495;DHT22;46342;49.046;11.920;2023-08-12T00:57:06;20.50;54.60
60495;DHT22;46342;49.046;11.920;2023-08-12T00:59:32;20.50;54.70
60495;DHT22;46342;49.046;11.920;2023-08-12T01:01:59;20.40;54.80
60495;DHT22;46342;49.046;11.920;2023-08-12T01:04:25;20.40;54.70
60495;DHT22;46342;49.046;11.920;2023-08-12T01:06:50;20.40;54.80
60495;DHT22;46342;49.046;11.920;2023-08-12T01:09:16;20.40;54.80
60495;DHT22;46342;49.046;11.920;2023-08-12T01:12:03;20.30;55.50
60495;DHT22;46342;49.046;11.920;2023-08-12T01:17:08;20.30;55.70
60495;DHT22;46342;49.046;11.920;2023-08-12T01:19:38;20.20;55.10
60495;DHT22;46342;49.046;11.920;2023-08-12T01:22:06;20.20;55.40
60495;DHT22;46342;49.046;11.920;2023-08-12T01:24:43;20.20;55.20
60495;DHT22;46342;49.046;11.920;2023-08-12T01:27:12;20.20;55.70
60495;DHT22;46342;49.046;11.920;2023-08-12T01:29:41;20.10;55.30
60495;DHT22;46342;49.046;11.920;2023-08-12T01:35:03;20.00;55.10
60495;DHT22;46342;49.046;11.920;2023-08-12T01:37:34;20.00;56.50
60495;DHT22;46342;49.046;11.920;2023-08-12T01:40:02;20.00;55.40
60495;DHT22;46342;49.046;11.920;2023-08-12T01:42:33;20.00;55.50
60495;DHT22;46342;49.046;11.920;2023-08-12T01:44:59;19.90;55.50
60495;DHT22;46342;49.046;11.920;2023-08-12T01:47:27;20.00;56.00
60495;DHT22;46342;49.046;11.920;2023-08-12T01:49:52;19.90;55.20
60495;DHT22;46342;49.046;11.920;2023-08-12T01:52:18;19.90;55.90
60495;DHT22;46342;49.046;11.920;2023-08-12T01:54:43;19.80;55.20
60495;DHT22;46342;49.046;11.920;2023-08-12T01:57:09;19.80;55.40
60495;DHT22;46342;49.046;11.920;2023-08-12T01:59:35;19.80;55.40
60495;DHT22;46342;49.046;11.920;2023-08-12T02:02:01;19.80;55.60
60495;DHT22;46342;49.046;11.920;2023-08-12T02:04:27;19.70;55.60
60495;DHT22;46342;49.046;11.920;2023-08-12T02:06:54;19.70;55.70
60495;DHT22;46342;49.046;11.920;2023-08-12T02:09:20;19.70;55.70
60495;DHT22;46342;49.046;11.920;2023-08-12T02:11:45;19.70;55.70
60495;DHT22;46342;49.046;11.920;2023-08-12T02:14:11;19.70;55.70
60495;DHT22;46342;49.046;11.920;2023-08-12T02:16:37;19.60;55.70
60495;DHT22;46342;49.046;11.920;2023-08-12T02:19:02;19.60;55.80
60495;DHT22;46342;49.046;11.920;2023-08-12T02:21:28;19.60;55.80
60495;DHT22;46342;49.046;11.920;2023-08-12T02:23:53;19.60;55.90
60495;DHT22;46342;49.046;11.920;2023-08-12T02:26:19;19.60;55.90
60495;DHT22;46342;49.046;11.920;2023-08-12T02:28:45;19.50;55.90
60495;DHT22;46342;49.046;11.920;2023-08-12T02:31:10;19.50;56.00
60495;DHT22;46342;49.046;11.920;2023-08-12T02:33:36;19.50;56.10
60495;DHT22;46342;49.046;11.920;2023-08-12T02:36:01;19.50;56.10
60495;DHT22;46342;49.046;11.920;2023-08-12T02:38:27;19.40;56.10
60495;DHT22;46342;49.046;11.920;2023-08-12T02:40:52;19.40;56.20
60495;DHT22;46342;49.046;11.920;2023-08-12T02:43:18;19.40;56.20
60495;DHT22;46342;49.046;11.920;2023-08-12T02:45:43;19.30;56.10
60495;DHT22;46342;49.046;11.920;2023-08-12T02:48:12;19.40;56.30
60495;DHT22;46342;49.046;11.920;2023-08-12T02:50:38;19.40;56.70
60495;DHT22;46342;49.046;11.920;2023-08-12T02:53:05;19.30;56.30
60495;DHT22;46342;49.046;11.920;2023-08-12T02:55:31;19.30;56.40
60495;DHT22;46342;49.046;11.920;2023-08-12T02:58:00;19.30;56.40
60495;DHT22;46342;49.046;11.920;2023-08-12T03:00:26;19.30;57.20
60495;DHT22;46342;49.046;11.920;2023-08-12T03:02:52;19.30;56.60
60495;DHT22;46342;49.046;11.920;2023-08-12T03:05:18;19.30;56.70
60495;DHT22;46342;49.046;11.920;2023-08-12T03:07:44;19.20;56.70
60495;DHT22;46342;49.046;11.920;2023-08-12T03:10:10;19.20;56.70
60495;DHT22;46342;49.046;11.920;2023-08-12T03:12:35;19.20;56.70
60495;DHT22;46342;49.046;11.920;2023-08-12T03:15:02;19.20;56.70
60495;DHT22;46342;49.046;11.920;2023-08-12T03:17:27;19.10;56.70
60495;DHT22;46342;49.046;11.920;2023-08-12T03:19:53;19.10;56.60
60495;DHT22;46342;49.046;11.920;2023-08-12T03:22:20;19.10;56.70
60495;DHT22;46342;49.046;11.920;2023-08-12T03:24:46;19.10;56.70
60495;DHT22;46342;49.046;11.920;2023-08-12T03:27:11;19.10;56.80
60495;DHT22;46342;49.046;11.920;2023-08-12T03:29:37;19.00;56.80
60495;DHT22;46342;49.046;11.920;2023-08-12T03:32:02;19.00;56.80
60495;DHT22;46342;49.046;11.920;2023-08-12T03:34:28;19.00;56.90
60495;DHT22;46342;49.046;11.920;2023-08-12T03:36:55;19.00;57.00
60495;DHT22;46342;49.046;11.920;2023-08-12T03:39:20;19.00;57.10
60495;DHT22;46342;49.046;11.920;2023-08-12T03:41:46;18.90;57.00
60495;DHT22;46342;49.046;11.920;2023-08-12T03:44:12;18.90;57.10
60495;DHT22;46342;49.046;11.920;2023-08-12T03:46:37;18.90;57.10
60495;DHT22;46342;49.046;11.920;2023-08-12T03:49:03;18.90;57.20
60495;DHT22;46342;49.046;11.920;2023-08-12T03:51:28;18.90;57.30
60495;DHT22;46342;49.046;11.920;2023-08-12T03:53:54;18.80;57.20
60495;DHT22;46342;49.046;11.920;2023-08-12T03:56:19;18.80;57.30
60495;DHT22;46342;49.046;11.920;2023-08-12T03:58:45;18.70;57.20
60495;DHT22;46342;49.046;11.920;2023-08-12T04:01:11;18.80;57.90
60495;DHT22;46342;49.046;11.920;2023-08-12T04:03:36;18.90;57.40
60495;DHT22;46342;49.046;11.920;2023-08-12T04:06:02;18.80;57.30
60495;DHT22;46342;49.046;11.920;2023-08-12T04:08:28;18.80;57.30
60495;DHT22;46342;49.046;11.920;2023-08-12T04:10:54;18.80;57.40
60495;DHT22;46342;49.046;11.920;2023-08-12T04:13:20;18.80;57.50
60495;DHT22;46342;49.046;11.920;2023-08-12T04:15:50;18.80;57.50
60495;DHT22;46342;49.046;11.920;2023-08-12T04:18:16;18.80;58.10
60495;DHT22;46342;49.046;11.920;2023-08-12T04:20:42;18.70;57.60
60495;DHT22;46342;49.046;11.920;2023-08-12T04:23:07;18.60;57.50
60495;DHT22;46342;49.046;11.920;2023-08-12T04:25:33;18.70;57.60
60495;DHT22;46342;49.046;11.920;2023-08-12T04:27:59;18.70;57.60
60495;DHT22;46342;49.046;11.920;2023-08-12T04:30:24;18.60;57.60
60495;DHT22;46342;49.046;11.920;2023-08-12T04:32:50;18.60;58.30
60495;DHT22;46342;49.046;11.920;2023-08-12T04:35:15;18.60;58.30
60495;DHT22;46342;49.046;11.920;2023-08-12T04:37:41;18.60;57.80
60495;DHT22;46342;49.046;11.920;2023-08-12T04:40:07;18.60;57.80
60495;DHT22;46342;49.046;11.920;2023-08-12T04:42:33;18.50;57.80
60495;DHT22;46342;49.046;11.920;2023-08-12T04:44:59;18.50;57.90
60495;DHT22;46342;49.046;11.920;2023-08-12T04:47:25;18.50;57.90
60495;DHT22;46342;49.046;11.920;2023-08-12T04:49:50;18.50;58.00
60495;DHT22;46342;49.046;11.920;2023-08-12T04:52:16;18.50;58.00
60495;DHT22;46342;49.046;11.920;2023-08-12T04:54:42;18.50;58.00
60495;DHT22;46342;49.046;11.920;2023-08-12T04:57:08;18.50;58.10
60495;DHT22;46342;49.046;11.920;2023-08-12T04:59:33;18.40;58.10
60495;DHT22;46342;49.046;11.920;2023-08-12T05:01:59;18.40;58.10
60495;DHT22;46342;49.046;11.920;2023-08-12T05:04:24;18.30;58.10
60495;DHT22;46342;49.046;11.920;2023-08-12T05:06:50;18.40;58.20
60495;DHT22;46342;49.046;11.920;2023-08-12T05:09:15;18.40;58.30
60495;DHT22;46342;49.046;11.920;2023-08-12T05:11:41;18.40;58.40
60495;DHT22;46342;49.046;11.920;2023-08-12T05:14:06;18.40;58.70
60495;DHT22;46342;49.046;11.920;2023-08-12T05:16:32;18.40;58.40
60495;DHT22;46342;49.046;11.920;2023-08-12T05:18:58;18.40;58.50
60495;DHT22;46342;49.046;11.920;2023-08-12T05:21:23;18.70;58.80
60495;DHT22;46342;49.046;11.920;2023-08-12T05:23:49;18.40;58.60
60495;DHT22;46342;49.046;11.920;2023-08-12T05:26:14;18.40;58.70
60495;DHT22;46342;49.046;11.920;2023-08-12T05:28:40;18.40;58.70
60495;DHT22;46342;49.046;11.920;2023-08-12T05:31:06;18.40;58.80
60495;DHT22;46342;49.046;11.920;2023-08-12T05:33:31;18.40;58.80
60495;DHT22;46342;49.046;11.920;2023-08-12T05:35:57;18.40;59.10
60495;DHT22;46342;49.046;11.920;2023-08-12T05:38:22;18.40;59.20
60495;DHT22;46342;49.046;11.920;2023-08-12T05:40:48;18.50;59.50
60495;DHT22;46342;49.046;11.920;2023-08-12T05:43:13;18.50;59.70
60495;DHT22;46342;49.046;11.920;2023-08-12T05:45:39;18.50;59.80
60495;DHT22;46342;49.046;11.920;2023-08-12T05:48:05;18.60;60.00
60495;DHT22;46342;49.046;11.920;2023-08-12T05:50:30;18.60;60.10
60495;DHT22;46342;49.046;11.920;2023-08-12T05:52:56;18.90;60.70
60495;DHT22;46342;49.046;11.920;2023-08-12T05:55:22;18.80;60.70
60495;DHT22;46342;49.046;11.920;2023-08-12T05:57:47;18.80;60.70
60495;DHT22;46342;49.046;11.920;2023-08-12T06:00:13;18.90;60.80
60495;DHT22;46342;49.046;11.920;2023-08-12T06:02:38;19.00;60.90
60495;DHT22;46342;49.046;11.920;2023-08-12T06:05:04;19.00;60.90
60495;DHT22;46342;49.046;11.920;2023-08-12T06:07:30;19.10;61.10
60495;DHT22;46342;49.046;11.920;2023-08-12T06:09:55;19.20;61.10
60495;DHT22;46342;49.046;11.920;2023-08-12T06:12:21;19.20;61.10
60495;DHT22;46342;49.046;11.920;2023-08-12T06:14:46;19.30;61.20
60495;DHT22;46342;49.046;11.920;2023-08-12T06:17:12;19.40;61.30
60495;DHT22;46342;49.046;11.920;2023-08-12T06:19:38;19.50;61.40
60495;DHT22;46342;49.046;11.920;2023-08-12T06:22:03;19.50;61.30
60495;DHT22;46342;49.046;11.920;2023-08-12T06:24:29;19.60;61.40
60495;DHT22;46342;49.046;11.920;2023-08-12T06:26:54;19.70;61.40
60495;DHT22;46342;49.046;11.920;2023-08-12T06:29:20;19.70;61.40
60495;DHT22;46342;49.046;11.920;2023-08-12T06:31:45;19.80;61.40
60495;DHT22;46342;49.046;11.920;2023-08-12T06:34:11;19.90;61.50
60495;DHT22;46342;49.046;11.920;2023-08-12T06:36:37;20.00;61.40
60495;DHT22;46342;49.046;11.920;2023-08-12T06:39:02;20.00;61.40
60495;DHT22;46342;49.046;11.920;2023-08-12T06:41:28;20.10;61.60
60495;DHT22;46342;49.046;11.920;2023-08-12T06:43:54;20.20;61.70
60495;DHT22;46342;49.046;11.920;2023-08-12T06:46:20;20.30;61.80
60495;DHT22;46342;49.046;11.920;2023-08-12T06:48:45;20.30;61.80
60495;DHT22;46342;49.046;11.920;2023-08-12T06:51:11;20.40;61.80
60495;DHT22;46342;49.046;11.920;2023-08-12T06:53:37;20.50;62.00
60495;DHT22;46342;49.046;11.920;2023-08-12T06:56:03;20.60;63.20
60495;DHT22;46342;49.046;11.920;2023-08-12T06:58:29;20.60;61.90
60495;DHT22;46342;49.046;11.920;2023-08-12T07:00:54;20.80;62.00
60495;DHT22;46342;49.046;11.920;2023-08-12T07:03:21;20.90;62.00
60495;DHT22;46342;49.046;11.920;2023-08-12T07:05:47;20.90;61.90
60495;DHT22;46342;49.046;11.920;2023-08-12T07:08:12;21.00;61.90
60495;DHT22;46342;49.046;11.920;2023-08-12T07:10:39;21.20;61.90
60495;DHT22;46342;49.046;11.920;2023-08-12T07:13:04;21.20;61.60
60495;DHT22;46342;49.046;11.920;2023-08-12T07:15:30;21.30;61.40
60495;DHT22;46342;49.046;11.920;2023-08-12T07:17:56;21.40;61.30
60495;DHT22;46342;49.046;11.920;2023-08-12T07:20:24;21.50;61.20
60495;DHT22;46342;49.046;11.920;2023-08-12T07:22:49;21.60;61.30
60495;DHT22;46342;49.046;11.920;2023-08-12T07:25:15;21.70;61.30
60495;DHT22;46342;49.046;11.920;2023-08-12T07:27:40;21.80;62.30
60495;DHT22;46342;49.046;11.920;2023-08-12T07:30:06;21.80;61.10
60495;DHT22;46342;49.046;11.920;2023-08-12T07:32:33;22.00;61.10
60495;DHT22;46342;49.046;11.920;2023-08-12T07:34:58;22.10;60.90
60495;DHT22;46342;49.046;11.920;2023-08-12T07:37:25;22.10;60.70
60495;DHT22;46342;49.046;11.920;2023-08-12T07:39:50;22.20;60.50
60495;DHT22;46342;49.046;11.920;2023-08-12T07:42:16;22.30;60.50
60495;DHT22;46342;49.046;11.920;2023-08-12T07:44:43;22.40;61.60
60495;DHT22;46342;49.046;11.920;2023-08-12T07:47:08;22.40;60.60
60495;DHT22;46342;49.046;11.920;2023-08-12T07:49:34;22.50;61.10
60495;DHT22;46342;49.046;11.920;2023-08-12T07:52:00;22.60;60.50
60495;DHT22;46342;49.046;11.920;2023-08-12T07:54:26;22.70;60.60
60495;DHT22;46342;49.046;11.920;2023-08-12T07:56:52;22.80;60.50
60495;DHT22;46342;49.046;11.920;2023-08-12T07:59:20;22.90;60.40
60495;DHT22;46342;49.046;11.920;2023-08-12T08:01:46;23.00;60.50
60495;DHT22;46342;49.046;11.920;2023-08-12T08:04:11;23.10;60.60
60495;DHT22;46342;49.046;11.920;2023-08-12T08:06:37;23.20;60.50
60495;DHT22;46342;49.046;11.920;2023-08-12T08:09:03;23.30;60.30
60495;DHT22;46342;49.046;11.920;2023-08-12T08:11:29;23.40;60.30
60495;DHT22;46342;49.046;11.920;2023-08-12T08:13:55;23.40;60.00
60495;DHT22;46342;49.046;11.920;2023-08-12T08:16:21;23.50;60.00
60495;DHT22;46342;49.046;11.920;2023-08-12T08:18:47;23.60;60.00
60495;DHT22;46342;49.046;11.920;2023-08-12T08:21:13;23.70;60.00
60495;DHT22;46342;49.046;11.920;2023-08-12T08:23:40;23.80;59.90
60495;DHT22;46342;49.046;11.920;2023-08-12T08:26:06;23.90;60.00
60495;DHT22;46342;49.046;11.920;2023-08-12T08:28:32;24.00;59.80
60495;DHT22;46342;49.046;11.920;2023-08-12T08:30:57;24.10;59.70
60495;DHT22;46342;49.046;11.920;2023-08-12T08:33:24;24.20;59.80
60495;DHT22;46342;49.046;11.920;2023-08-12T08:35:50;24.20;59.80
60495;DHT22;46342;49.046;11.920;2023-08-12T08:38:16;24.30;59.70
60495;DHT22;46342;49.046;11.920;2023-08-12T08:40:42;24.40;59.70
60495;DHT22;46342;49.046;11.920;2023-08-12T08:43:08;24.50;59.60
60495;DHT22;46342;49.046;11.920;2023-08-12T08:45:34;24.60;59.70
60495;DHT22;46342;49.046;11.920;2023-08-12T08:48:01;24.60;59.50
60495;DHT22;46342;49.046;11.920;2023-08-12T08:50:30;24.70;59.40
60495;DHT22;46342;49.046;11.920;2023-08-12T08:52:57;24.80;59.10
60495;DHT22;46342;49.046;11.920;2023-08-12T08:55:23;24.90;59.00
60495;DHT22;46342;49.046;11.920;2023-08-12T08:57:49;25.00;59.00
60495;DHT22;46342;49.046;11.920;2023-08-12T09:00:18;25.00;59.40
60495;DHT22;46342;49.046;11.920;2023-08-12T09:02:47;25.10;58.60
60495;DHT22;46342;49.046;11.920;2023-08-12T09:05:16;25.10;58.70
60495;DHT22;46342;49.046;11.920;2023-08-12T09:07:43;25.20;58.60
60495;DHT22;46342;49.046;11.920;2023-08-12T09:10:10;25.20;58.60
60495;DHT22;46342;49.046;11.920;2023-08-12T09:12:36;25.30;58.50
60495;DHT22;46342;49.046;11.920;2023-08-12T09:15:02;25.30;58.40
60495;DHT22;46342;49.046;11.920;2023-08-12T09:17:30;25.40;58.30
60495;DHT22;46342;49.046;11.920;2023-08-12T09:19:57;25.50;58.20
60495;DHT22;46342;49.046;11.920;2023-08-12T09:22:25;25.60;58.30
60495;DHT22;46342;49.046;11.920;2023-08-12T09:24:56;25.60;58.20
60495;DHT22;46342;49.046;11.920;2023-08-12T09:27:23;25.70;58.10
60495;DHT22;46342;49.046;11.920;2023-08-12T09:29:50;25.70;58.30
60495;DHT22;46342;49.046;11.920;2023-08-12T09:32:20;25.80;58.30
60495;DHT22;46342;49.046;11.920;2023-08-12T09:34:50;25.90;58.10
60495;DHT22;46342;49.046;11.920;2023-08-12T09:37:17;26.00;58.10
60495;DHT22;46342;49.046;11.920;2023-08-12T09:39:44;26.10;58.20
60495;DHT22;46342;49.046;11.920;2023-08-12T09:42:11;26.20;58.80
60495;DHT22;46342;49.046;11.920;2023-08-12T09:44:37;26.30;58.10
60495;DHT22;46342;49.046;11.920;2023-08-12T09:47:03;26.40;58.00
60495;DHT22;46342;49.046;11.920;2023-08-12T09:49:29;26.50;58.00
60495;DHT22;46342;49.046;11.920;2023-08-12T09:51:55;26.60;57.90
60495;DHT22;46342;49.046;11.920;2023-08-12T09:54:22;26.70;57.90
60495;DHT22;46342;49.046;11.920;2023-08-12T09:56:54;26.90;57.70
60495;DHT22;46342;49.046;11.920;2023-08-12T09:59:23;27.00;57.00
60495;DHT22;46342;49.046;11.920;2023-08-12T10:01:49;27.10;57.00
60495;DHT22;46342;49.046;11.920;2023-08-12T10:04:22;27.20;57.60
60495;DHT22;46342;49.046;11.920;2023-08-12T10:06:48;27.30;56.50
60495;DHT22;46342;49.046;11.920;2023-08-12T10:09:15;27.40;56.50
60495;DHT22;46342;49.046;11.920;2023-08-12T10:11:42;27.40;56.40
60495;DHT22;46342;49.046;11.920;2023-08-12T10:14:10;27.50;56.30
60495;DHT22;46342;49.046;11.920;2023-08-12T10:16:36;27.50;56.20
60495;DHT22;46342;49.046;11.920;2023-08-12T10:19:04;27.60;56.10
60495;DHT22;46342;49.046;11.920;2023-08-12T10:21:30;27.60;55.90
60495;DHT22;46342;49.046;11.920;2023-08-12T10:23:58;27.70;56.00
60495;DHT22;46342;49.046;11.920;2023-08-12T10:26:24;27.70;56.30
60495;DHT22;46342;49.046;11.920;2023-08-12T10:28:50;27.80;55.60
60495;DHT22;46342;49.046;11.920;2023-08-12T10:31:16;27.80;55.60
60495;DHT22;46342;49.046;11.920;2023-08-12T10:33:42;27.80;55.60
60495;DHT22;46342;49.046;11.920;2023-08-12T10:36:08;27.90;55.50
60495;DHT22;46342;49.046;11.920;2023-08-12T10:38:34;27.90;55.40
60495;DHT22;46342;49.046;11.920;2023-08-12T10:46:49;28.10;55.00
60495;DHT22;46342;49.046;11.920;2023-08-12T10:49:15;28.20;54.90
60495;DHT22;46342;49.046;11.920;2023-08-12T10:51:45;28.20;55.20
60495;DHT22;46342;49.046;11.920;2023-08-12T10:54:14;28.30;54.90
60495;DHT22;46342;49.046;11.920;2023-08-12T11:02:28;28.50;54.40
60495;DHT22;46342;49.046;11.920;2023-08-12T11:07:28;28.70;54.40
60495;DHT22;46342;49.046;11.920;2023-08-12T11:09:59;28.70;54.30
60495;DHT22;46342;49.046;11.920;2023-08-12T11:12:30;28.80;54.70
60495;DHT22;46342;49.046;11.920;2023-08-12T11:14:58;28.80;54.20
60495;DHT22;46342;49.046;11.920;2023-08-12T11:17:39;28.90;54.30
60495;DHT22;46342;49.046;11.920;2023-08-12T11:20:07;29.00;53.60
60495;DHT22;46342;49.046;11.920;2023-08-12T11:22:36;29.00;54.00
60495;DHT22;46342;49.046;11.920;2023-08-12T11:25:06;29.10;54.00
60495;DHT22;46342;49.046;11.920;2023-08-12T11:27:45;29.20;54.10
60495;DHT22;46342;49.046;11.920;2023-08-12T11:30:18;29.30;53.40
60495;DHT22;46342;49.046;11.920;2023-08-12T11:32:46;29.40;53.40
60495;DHT22;46342;49.046;11.920;2023-08-12T11:35:13;29.50;53.60
60495;DHT22;46342;49.046;11.920;2023-08-12T11:37:40;29.60;53.60
60495;DHT22;46342;49.046;11.920;2023-08-12T11:40:08;29.60;53.60
60495;DHT22;46342;49.046;11.920;2023-08-12T11:42:38;29.70;53.20
60495;DHT22;46342;49.046;11.920;2023-08-12T11:45:05;29.80;53.10
60495;DHT22;46342;49.046;11.920;2023-08-12T11:47:31;29.90;53.00
60495;DHT22;46342;49.046;11.920;2023-08-12T11:49:57;30.00;52.80
60495;DHT22;46342;49.046;11.920;2023-08-12T11:52:23;30.10;52.80
60495;DHT22;46342;49.046;11.920;2023-08-12T11:54:52;30.20;52.90
60495;DHT22;46342;49.046;11.920;2023-08-12T11:57:18;30.30;52.40
60495;DHT22;46342;49.046;11.920;2023-08-12T11:59:44;30.40;52.70
60495;DHT22;46342;49.046;11.920;2023-08-12T12:02:10;30.50;52.50
60495;DHT22;46342;49.046;11.920;2023-08-12T12:04:37;30.60;52.40
60495;DHT22;46342;49.046;11.920;2023-08-12T12:07:03;30.70;52.00
60495;DHT22;46342;49.046;11.920;2023-08-12T12:09:32;30.80;52.00
60495;DHT22;46342;49.046;11.920;2023-08-12T12:11:57;30.90;51.90
60495;DHT22;46342;49.046;11.920;2023-08-12T12:14:24;31.00;51.90
60495;DHT22;46342;49.046;11.920;2023-08-12T12:16:50;31.10;51.70
60495;DHT22;46342;49.046;11.920;2023-08-12T12:19:18;31.20;51.80
60495;DHT22;46342;49.046;11.920;2023-08-12T12:21:53;31.30;51.50
60495;DHT22;46342;49.046;11.920;2023-08-12T12:24:19;31.40;50.80
60495;DHT22;46342;49.046;11.920;2023-08-12T12:26:46;31.50;51.30
60495;DHT22;46342;49.046;11.920;2023-08-12T12:29:12;31.60;51.10
60495;DHT22;46342;49.046;11.920;2023-08-12T12:31:39;31.70;51.10
60495;DHT22;46342;49.046;11.920;2023-08-12T12:34:06;31.80;50.80
60495;DHT22;46342;49.046;11.920;2023-08-12T12:36:35;31.90;50.80
60495;DHT22;46342;49.046;11.920;2023-08-12T12:39:02;32.00;50.60
60495;DHT22;46342;49.046;11.920;2023-08-12T12:41:28;32.10;50.40
60495;DHT22;46342;49.046;11.920;2023-08-12T12:43:54;32.20;50.30
60495;DHT22;46342;49.046;11.920;2023-08-12T12:46:19;32.30;49.80
60495;DHT22;46342;49.046;11.920;2023-08-12T12:48:45;32.40;49.70
60495;DHT22;46342;49.046;11.920;2023-08-12T12:51:12;32.40;49.60
60495;DHT22;46342;49.046;11.920;2023-08-12T12:53:37;32.50;49.40
60495;DHT22;46342;49.046;11.920;2023-08-12T12:56:03;32.60;49.00
60495;DHT22;46342;49.046;11.920;2023-08-12T12:58:36;32.70;48.90
60495;DHT22;46342;49.046;11.920;2023-08-12T13:01:03;32.80;48.00
60495;DHT22;46342;49.046;11.920;2023-08-12T13:03:30;32.80;48.60
60495;DHT22;46342;49.046;11.920;2023-08-12T13:05:56;32.90;48.50
60495;DHT22;46342;49.046;11.920;2023-08-12T13:08:22;33.10;48.50
60495;DHT22;46342;49.046;11.920;2023-08-12T13:10:47;33.10;48.40
60495;DHT22;46342;49.046;11.920;2023-08-12T13:13:14;33.20;48.20
60495;DHT22;46342;49.046;11.920;2023-08-12T13:15:41;33.30;47.90
60495;DHT22;46342;49.046;11.920;2023-08-12T13:18:07;33.30;47.80
60495;DHT22;46342;49.046;11.920;2023-08-12T13:20:34;33.40;48.20
60495;DHT22;46342;49.046;11.920;2023-08-12T13:23:00;33.50;47.50
60495;DHT22;46342;49.046;11.920;2023-08-12T13:25:27;33.60;47.20
60495;DHT22;46342;49.046;11.920;2023-08-12T13:27:53;33.70;47.60
60495;DHT22;46342;49.046;11.920;2023-08-12T13:30:19;33.70;46.90
60495;DHT22;46342;49.046;11.920;2023-08-12T13:32:44;33.70;46.60
60495;DHT22;46342;49.046;11.920;2023-08-12T13:35:10;33.80;46.50
60495;DHT22;46342;49.046;11.920;2023-08-12T13:37:36;33.80;46.30
60495;DHT22;46342;49.046;11.920;2023-08-12T13:40:02;33.80;46.20
60495;DHT22;46342;49.046;11.920;2023-08-12T13:42:28;33.80;46.00
60495;DHT22;46342;49.046;11.920;2023-08-12T13:44:53;33.80;46.10
60495;DHT22;46342;49.046;11.920;2023-08-12T13:47:19;33.80;46.00
60495;DHT22;46342;49.046;11.920;2023-08-12T13:49:44;33.80;45.80
60495;DHT22;46342;49.046;11.920;2023-08-12T13:52:10;33.80;45.70
60495;DHT22;46342;49.046;11.920;2023-08-12T13:54:36;33.80;45.70
60495;DHT22;46342;49.046;11.920;2023-08-12T13:57:02;33.80;45.80
60495;DHT22;46342;49.046;11.920;2023-08-12T13:59:29;33.80;45.50
60495;DHT22;46342;49.046;11.920;2023-08-12T14:01:54;33.90;45.50
60495;DHT22;46342;49.046;11.920;2023-08-12T14:04:20;33.90;46.10
60495;DHT22;46342;49.046;11.920;2023-08-12T14:06:46;33.90;45.30
60495;DHT22;46342;49.046;11.920;2023-08-12T14:09:12;33.90;45.80
60495;DHT22;46342;49.046;11.920;2023-08-12T14:11:39;33.90;45.20
60495;DHT22;46342;49.046;11.920;2023-08-12T14:14:05;33.90;44.80
60495;DHT22;46342;49.046;11.920;2023-08-12T14:16:30;33.90;44.70
60495;DHT22;46342;49.046;11.920;2023-08-12T14:18:56;34.00;44.60
60495;DHT22;46342;49.046;11.920;2023-08-12T14:21:21;34.00;44.40
60495;DHT22;46342;49.046;11.920;2023-08-12T14:23:47;34.10;44.40
60495;DHT22;46342;49.046;11.920;2023-08-12T14:26:13;34.10;44.20
60495;DHT22;46342;49.046;11.920;2023-08-12T14:28:38;34.10;43.90
60495;DHT22;46342;49.046;11.920;2023-08-12T14:31:04;34.10;43.80
60495;DHT22;46342;49.046;11.920;2023-08-12T14:33:29;34.10;43.90
60495;DHT22;46342;49.046;11.920;2023-08-12T14:35:58;34.10;43.90
60495;DHT22;46342;49.046;11.920;2023-08-12T14:38:24;34.10;43.50
60495;DHT22;46342;49.046;11.920;2023-08-12T14:40:49;34.00;43.90
60495;DHT22;46342;49.046;11.920;2023-08-12T14:43:15;34.00;44.00
60495;DHT22;46342;49.046;11.920;2023-08-12T14:45:40;34.00;43.90
60495;DHT22;46342;49.046;11.920;2023-08-12T14:48:06;34.00;43.70
60495;DHT22;46342;49.046;11.920;2023-08-12T14:50:32;34.00;43.70
60495;DHT22;46342;49.046;11.920;2023-08-12T14:52:57;34.00;43.80
60495;DHT22;46342;49.046;11.920;2023-08-12T14:55:23;34.00;43.70
60495;DHT22;46342;49.046;11.920;2023-08-12T14:57:48;33.90;43.70
60495;DHT22;46342;49.046;11.920;2023-08-12T15:00:14;33.90;43.50
60495;DHT22;46342;49.046;11.920;2023-08-12T15:02:40;33.90;43.70
60495;DHT22;46342;49.046;11.920;2023-08-12T15:05:06;33.90;43.60
60495;DHT22;46342;49.046;11.920;2023-08-12T15:07:32;33.80;43.40
60495;DHT22;46342;49.046;11.920;2023-08-12T15:09:57;33.70;44.00
60495;DHT22;46342;49.046;11.920;2023-08-12T15:12:24;33.70;43.30
60495;DHT22;46342;49.046;11.920;2023-08-12T15:14:50;33.60;43.30
60495;DHT22;46342;49.046;11.920;2023-08-12T15:17:16;33.50;43.20
60495;DHT22;46342;49.046;11.920;2023-08-12T15:19:41;33.50;43.30
60495;DHT22;46342;49.046;11.920;2023-08-12T15:22:07;33.30;43.40
60495;DHT22;46342;49.046;11.920;2023-08-12T15:24:32;33.30;43.70
60495;DHT22;46342;49.046;11.920;2023-08-12T15:26:58;33.20;43.70
60495;DHT22;46342;49.046;11.920;2023-08-12T15:29:23;33.10;43.80